Time;durP1;ratioP1;P1;durP2;ratioP2;P2;SDS_P1;SDS_P2;PMS_P1;PMS_P2;Temp;Humidity;BMP_temperature;BMP_pressure;BME280_temperature;BME280_humidity;BME280_pressure;Samples;Min_cycle;Max_cycle;Signal;HPM_P1;HPM_P2
2022/02/07 00:03:22;;;;;;;10.68;5.22;;;2.60;99.90;;;;;;21101324;28;20044;-52
2022/02/07 00:13:25;;;;;;;8.52;5.20;;;2.80;99.90;;;;;;21109360;28;20108;-46
2022/02/07 00:23:28;;;;;;;9.68;5.38;;;2.70;99.90;;;;;;21126046;28;20048;-48
2022/02/07 00:33:31;;;;;;;11.90;6.03;;;2.50;99.90;;;;;;21108733;28;20044;-46
2022/02/07 00:43:39;;;;;;;13.00;6.68;;;2.30;99.90;;;;;;21075997;28;20056;-47
2022/02/07 00:53:41;;;;;;;18.00;7.32;;;2.10;99.90;;;;;;21098198;28;20036;-48
2022/02/07 01:03:44;;;;;;;13.77;6.55;;;2.10;99.90;;;;;;21082352;28;20105;-49
2022/02/07 02:05:38;;;;;;;5.22;1.83;;;3.60;99.90;;;;;;21119707;28;20047;-45
2022/02/07 02:46:27;;;;;;;6.68;3.50;;;3.20;99.90;;;;;;21104804;28;20494;-49
2022/02/07 02:56:33;;;;;;;6.15;3.60;;;2.90;99.90;;;;;;21072029;28;20036;-48
2022/02/07 03:06:38;;;;;;;7.22;3.22;;;2.50;99.90;;;;;;21107849;28;20100;-46
2022/02/07 03:16:41;;;;;;;6.15;3.10;;;2.40;99.90;;;;;;21104868;28;20100;-49
2022/02/07 03:26:47;;;;;;;6.18;3.30;;;2.30;99.90;;;;;;21124831;28;20036;-46
2022/02/07 03:37:00;;;;;;;8.68;3.72;;;2.50;99.90;;;;;;21060294;28;20048;-46
2022/02/07 03:47:05;;;;;;;5.70;3.30;;;2.60;99.90;;;;;;21096712;28;20035;-47
2022/02/07 03:57:09;;;;;;;6.35;3.30;;;2.40;99.90;;;;;;21114161;28;20039;-47
2022/02/07 04:07:13;;;;;;;10.23;4.50;;;1.80;99.90;;;;;;21096604;28;20099;-47
2022/02/07 04:17:22;;;;;;;7.45;3.20;;;1.40;99.90;;;;;;21109156;28;20487;-48
2022/02/07 04:27:26;;;;;;;8.30;3.67;;;1.00;99.90;;;;;;21108702;28;20040;-47
2022/02/07 04:37:30;;;;;;;8.93;4.15;;;1.00;99.90;;;;;;21124969;28;20035;-48
2022/02/07 04:58:02;;;;;;;11.68;5.43;;;0.40;99.90;;;;;;21107601;28;20039;-47
2022/02/07 05:18:28;;;;;;;22.45;10.38;;;0.30;99.90;;;;;;21123373;28;20055;-46
2022/02/07 05:28:46;;;;;;;15.20;7.85;;;0.70;99.90;;;;;;21092909;28;20028;-46
2022/02/07 05:39:01;;;;;;;10.52;5.75;;;1.10;99.90;;;;;;21114638;28;20032;-47
2022/02/07 05:49:22;;;;;;;3.45;1.13;;;1.90;99.90;;;;;;21125397;28;20094;-47
2022/02/07 05:59:44;;;;;;;5.38;1.80;;;2.80;99.90;;;;;;21111266;28;20036;-46
2022/02/07 06:10:08;;;;;;;2.60;1.27;;;4.30;99.90;;;;;;21082816;28;20097;-47
2022/02/07 06:20:11;;;;;;;1.00;0.32;;;4.40;99.90;;;;;;21101813;28;20048;-45
2022/02/07 06:30:15;;;;;;;0.55;0.30;;;4.80;99.90;;;;;;21110891;28;20032;-46
2022/02/07 06:40:20;;;;;;;15.65;7.50;;;5.20;99.90;;;;;;21079301;28;20040;-47
2022/02/07 06:50:24;;;;;;;31.10;15.52;;;2.60;99.90;;;;;;21102956;28;20039;-44
2022/02/07 07:00:26;;;;;;;12.20;6.75;;;1.00;99.90;;;;;;21081895;28;20111;-46
2022/02/07 07:10:33;;;;;;;10.50;5.90;;;0.70;99.90;;;;;;21087554;28;20028;-46
2022/02/07 07:20:39;;;;;;;6.38;3.30;;;0.70;99.90;;;;;;21097732;28;20052;-45
2022/02/07 07:30:48;;;;;;;5.20;2.65;;;0.80;99.90;;;;;;21087567;28;20487;-45
2022/02/07 07:40:52;;;;;;;2.67;1.27;;;1.10;99.90;;;;;;21087222;28;20028;-45
2022/02/07 07:51:16;;;;;;;4.57;2.17;;;1.60;99.90;;;;;;21086181;28;20056;-45
2022/02/07 08:01:46;;;;;;;2.13;1.00;;;2.10;99.90;;;;;;21096146;28;20099;-46
2022/02/07 08:12:04;;;;;;;2.30;1.10;;;3.00;99.90;;;;;;20983198;28;20036;-47
2022/02/07 08:22:10;;;;;;;1.77;1.00;;;3.40;99.60;;;;;;20985482;28;20048;-47
2022/02/07 08:32:12;;;;;;;1.80;0.77;;;3.60;97.10;;;;;;21006516;28;20070;-46
2022/02/07 08:42:14;;;;;;;0.63;0.10;;;3.80;91.00;;;;;;21087458;28;20051;-46
2022/02/07 08:52:18;;;;;;;0.20;0.10;;;4.00;72.50;;;;;;21090806;28;20040;-48
2022/02/07 09:02:49;;;;;;;1.52;0.00;;;4.10;65.80;;;;;;21065121;28;20036;-45
2022/02/07 09:12:47;;;;;;;0.65;0.38;;;4.10;60.20;;;;;;21106355;28;20055;-45
2022/02/07 09:22:50;;;;;;;0.50;0.20;;;4.40;75.80;;;;;;21114754;28;20044;-48
2022/02/07 09:32:53;;;;;;;6.43;0.10;;;4.50;64.40;;;;;;21080709;28;20089;-47
2022/02/07 09:42:59;;;;;;;0.52;0.03;;;4.80;60.20;;;;;;21080471;28;20451;-46
2022/02/07 09:53:01;;;;;;;0.10;0.10;;;4.90;59.30;;;;;;21121049;28;20540;-46
2022/02/07 10:03:12;;;;;;;0.10;0.00;;;4.80;60.70;;;;;;21124811;28;20043;-45
2022/02/07 10:13:23;;;;;;;0.20;0.10;;;4.80;53.80;;;;;;21106079;28;20039;-45
2022/02/07 10:44:46;;;;;;;0.77;0.20;;;4.60;58.10;;;;;;21104478;28;20035;-47
2022/02/07 10:54:52;;;;;;;0.60;0.40;;;4.90;65.80;;;;;;21090473;28;20035;-48
2022/02/07 11:05:01;;;;;;;0.80;0.40;;;4.60;74.90;;;;;;21108691;28;20036;-46
2022/02/07 11:15:28;;;;;;;0.40;0.20;;;4.50;78.50;;;;;;21115423;28;20044;-45
2022/02/07 11:25:44;;;;;;;0.40;0.20;;;4.50;80.60;;;;;;21124919;28;20540;-46
2022/02/07 11:35:51;;;;;;;0.15;0.00;;;4.50;77.80;;;;;;21105684;28;20040;-46
2022/02/07 11:46:13;;;;;;;0.30;0.00;;;4.60;71.50;;;;;;21113921;28;20115;-45
2022/02/07 11:56:35;;;;;;;0.00;0.00;;;4.50;69.90;;;;;;21106802;28;20046;-45
2022/02/07 12:06:38;;;;;;;4.68;0.03;;;4.20;71.90;;;;;;21090611;28;20081;-45
2022/02/07 12:16:46;;;;;;;0.57;0.00;;;4.20;65.90;;;;;;21074712;28;20102;-45
2022/02/07 12:26:52;;;;;;;0.43;0.00;;;4.30;63.30;;;;;;21102044;28;20074;-46
2022/02/07 12:36:56;;;;;;;0.05;0.00;;;4.20;58.00;;;;;;21108460;28;20085;-45
2022/02/07 12:46:58;;;;;;;0.20;0.10;;;4.30;56.40;;;;;;21094095;28;20066;-45
2022/02/07 12:57:01;;;;;;;0.75;0.03;;;4.50;51.30;;;;;;21107740;28;20563;-44
2022/02/07 13:07:08;;;;;;;0.10;0.00;;;4.30;51.30;;;;;;21113790;28;20097;-45
2022/02/07 13:17:13;;;;;;;0.00;0.00;;;4.50;52.70;;;;;;21107975;28;20040;-45
2022/02/07 13:27:18;;;;;;;0.10;0.00;;;4.50;55.20;;;;;;21109479;28;20479;-44
2022/02/07 13:37:26;;;;;;;0.00;0.00;;;4.40;55.30;;;;;;21121834;28;20039;-48
2022/02/07 13:47:29;;;;;;;0.20;0.00;;;4.20;52.00;;;;;;21107553;28;20040;-44
2022/02/07 13:57:31;;;;;;;0.15;0.00;;;4.10;55.60;;;;;;21119003;28;20020;-45
2022/02/07 14:07:52;;;;;;;0.00;0.00;;;3.80;54.50;;;;;;21109451;28;20434;-46
2022/02/07 14:17:55;;;;;;;0.65;0.10;;;3.50;54.90;;;;;;21120195;28;20048;-46
2022/02/07 14:28:01;;;;;;;0.43;0.00;;;3.50;53.70;;;;;;21117435;28;20104;-47
2022/02/07 14:38:05;;;;;;;0.00;0.00;;;3.40;50.60;;;;;;21094306;28;20491;-48
2022/02/07 14:48:08;;;;;;;0.00;0.00;;;3.30;49.70;;;;;;21122619;28;20043;-46
2022/02/07 14:58:11;;;;;;;0.00;0.00;;;3.30;48.50;;;;;;21124101;28;20088;-46
2022/02/07 15:08:14;;;;;;;0.40;0.00;;;3.30;48.30;;;;;;21093203;28;20347;-47
2022/02/07 15:18:20;;;;;;;0.10;0.10;;;3.30;49.20;;;;;;21126979;28;20109;-46
2022/02/07 15:28:23;;;;;;;0.00;0.00;;;3.20;49.40;;;;;;21092721;28;20432;-47
2022/02/07 15:38:25;;;;;;;0.00;0.00;;;3.00;49.30;;;;;;21107327;28;20133;-46
2022/02/07 15:48:29;;;;;;;1.77;0.00;;;2.90;46.40;;;;;;21095067;28;20055;-45
2022/02/07 15:58:32;;;;;;;1.48;0.00;;;2.60;48.30;;;;;;21102555;28;20040;-48
2022/02/07 16:08:35;;;;;;;1.85;0.00;;;2.00;50.00;;;;;;21102007;28;20428;-46
2022/02/07 16:18:39;;;;;;;2.30;0.00;;;1.40;50.90;;;;;;21116163;28;20040;-46
2022/02/07 16:28:43;;;;;;;0.03;0.00;;;1.00;51.70;;;;;;21103181;28;20057;-47
2022/02/07 16:38:46;;;;;;;0.00;0.00;;;0.10;55.10;;;;;;21106067;28;20035;-46
2022/02/07 16:48:51;;;;;;;1.15;0.00;;;-0.90;59.50;;;;;;21085467;28;20082;-45
2022/02/07 16:58:54;;;;;;;0.10;0.00;;;-1.20;58.20;;;;;;21115018;28;20036;-45
2022/02/07 17:08:58;;;;;;;0.20;0.00;;;-0.70;57.80;;;;;;21109473;28;20039;-48
2022/02/07 17:19:04;;;;;;;0.00;0.00;;;-0.60;58.30;;;;;;21081885;28;20069;-45
2022/02/07 17:29:07;;;;;;;0.20;0.00;;;-1.10;60.10;;;;;;21116921;28;20027;-45
2022/02/07 17:39:13;;;;;;;0.22;0.00;;;-1.00;59.20;;;;;;21103376;28;20458;-40
2022/02/07 17:49:15;;;;;;;0.75;0.00;;;-0.80;59.30;;;;;;21083293;28;20032;-44
2022/02/07 17:59:18;;;;;;;0.10;0.00;;;-0.70;58.60;;;;;;21083521;28;20085;-48
2022/02/07 18:09:21;;;;;;;0.00;0.00;;;-0.70;59.50;;;;;;21076068;28;20040;-56
2022/02/07 18:19:25;;;;;;;0.28;0.10;;;-0.70;59.90;;;;;;21003466;28;20087;-66
2022/02/07 18:29:31;;;;;;;0.40;0.00;;;-1.00;60.30;;;;;;21028441;28;20345;-61
2022/02/07 18:39:33;;;;;;;0.15;0.00;;;-1.40;61.50;;;;;;21036917;28;20124;-61
2022/02/07 18:49:36;;;;;;;0.10;0.00;;;-1.50;61.10;;;;;;20992358;28;20063;-61
2022/02/07 18:59:40;;;;;;;0.10;0.00;;;-1.30;60.10;;;;;;21034448;28;20097;-53
2022/02/07 19:09:43;;;;;;;0.75;0.00;;;-1.70;63.20;;;;;;21036852;28;20040;-56
2022/02/07 19:19:56;;;;;;;0.35;0.03;;;-1.40;62.80;;;;;;21102667;28;20039;-57
2022/02/07 19:30:03;;;;;;;0.10;0.00;;;-1.20;62.30;;;;;;21123746;27;20073;-46
2022/02/07 19:40:06;;;;;;;0.32;0.10;;;-1.20;62.60;;;;;;21128182;28;20043;-46
2022/02/07 19:50:09;;;;;;;0.30;0.03;;;-1.20;62.70;;;;;;21127288;28;20040;-46
2022/02/07 20:00:13;;;;;;;0.03;0.00;;;-1.30;63.00;;;;;;21132335;28;20035;-46
2022/02/07 20:10:16;;;;;;;0.00;0.00;;;-1.50;63.60;;;;;;21132265;28;20031;-46
2022/02/07 20:20:19;;;;;;;0.22;0.00;;;-1.40;63.10;;;;;;21131248;28;20052;-46
2022/02/07 20:30:22;;;;;;;0.00;0.00;;;-1.30;63.70;;;;;;21131136;28;20092;-46
2022/02/07 20:40:25;;;;;;;1.10;0.10;;;-1.30;63.70;;;;;;21130141;28;20039;-46
2022/02/07 20:50:31;;;;;;;0.08;0.00;;;-1.30;63.50;;;;;;21129328;28;20092;-47
2022/02/07 21:00:34;;;;;;;0.03;0.00;;;-1.50;64.90;;;;;;21129160;28;20036;-46
2022/02/07 21:10:41;;;;;;;0.55;0.08;;;-1.60;65.10;;;;;;21128719;28;20436;-48
2022/02/07 21:20:44;;;;;;;0.10;0.00;;;-1.70;66.60;;;;;;21128478;28;20639;-46
2022/02/07 21:30:47;;;;;;;0.10;0.00;;;-1.90;67.10;;;;;;21128160;28;20085;-47
2022/02/07 21:40:55;;;;;;;0.60;0.10;;;-2.00;68.00;;;;;;21130375;28;20066;-49
2022/02/07 21:50:57;;;;;;;0.43;0.00;;;-1.90;66.40;;;;;;21092938;28;20036;-46
2022/02/07 22:01:02;;;;;;;0.20;0.10;;;-1.90;65.80;;;;;;21096958;28;20544;-46
2022/02/07 22:11:06;;;;;;;0.65;0.00;;;-1.90;65.60;;;;;;21083265;28;20036;-46
2022/02/07 22:21:10;;;;;;;0.20;0.00;;;-2.40;67.30;;;;;;21083098;28;20043;-46
2022/02/07 22:31:21;;;;;;;0.52;0.10;;;-2.60;70.30;;;;;;21101704;28;20096;-48
2022/02/07 22:41:24;;;;;;;0.15;0.05;;;-2.40;68.60;;;;;;21089161;28;20464;-47
2022/02/07 22:51:26;;;;;;;0.40;0.10;;;-2.20;67.40;;;;;;21134242;28;20035;-46
2022/02/07 23:01:29;;;;;;;0.40;0.10;;;-2.00;67.70;;;;;;21122183;28;20092;-46
2022/02/07 23:42:07;;;;;;;1.10;0.10;;;-2.30;68.80;;;;;;21132857;28;20047;-46
2022/02/07 23:52:29;;;;;;;0.20;0.10;;;-2.50;68.80;;;;;;21117049;28;20031;-46
